Time;durP1;ratioP1;P1;durP2;ratioP2;P2;SDS_P1;SDS_P2;PMS_P1;PMS_P2;Temp;Humidity;BMP_temperature;BMP_pressure;BME280_temperature;BME280_humidity;BME280_pressure;Samples;Min_cycle;Max_cycle;Signal;HPM_P1;HPM_P2
2021/12/19 00:00:21;;;;;;;37.90;25.87;;;;;;;0.11;83.79;102733.13;4950818;29;20494;-78
2021/12/19 00:08:52;;;;;;;36.07;24.50;;;;;;;0.04;82.84;102688.84;4932845;29;20087;-78
2021/12/19 00:11:21;;;;;;;34.13;25.07;;;;;;;0.07;83.29;102684.44;4931405;29;20051;-78
2021/12/19 00:13:49;;;;;;;33.80;25.60;;;;;;;0.15;82.84;102698.28;4932808;29;20067;-78
2021/12/19 00:16:16;;;;;;;36.47;24.83;;;;;;;0.25;82.79;102698.19;4931148;29;20555;-78
2021/12/19 00:18:44;;;;;;;36.23;24.97;;;;;;;0.25;83.05;102688.59;4933597;29;20055;-78
2021/12/19 00:21:11;;;;;;;36.70;26.77;;;;;;;0.32;82.85;102686.75;4934802;29;20407;-77
2021/12/19 00:23:39;;;;;;;35.93;25.97;;;;;;;0.31;82.89;102683.25;4935084;29;20235;-78
2021/12/19 00:26:08;;;;;;;39.07;27.90;;;;;;;0.12;82.56;102653.91;4934884;29;20054;-84
2021/12/19 00:28:35;;;;;;;35.50;25.87;;;;;;;0.23;82.31;102679.91;4934923;29;20527;-85
2021/12/19 00:31:03;;;;;;;33.23;25.90;;;;;;;0.07;82.61;102642.63;4935039;29;20579;-83
2021/12/19 00:33:30;;;;;;;37.60;25.87;;;;;;;0.05;82.44;102640.94;4936129;29;20111;-82
2021/12/19 00:35:58;;;;;;;38.37;26.40;;;;;;;-0.36;82.65;102575.31;4936047;29;20062;-84
2021/12/19 00:38:25;;;;;;;33.53;26.57;;;;;;;0.24;82.79;102668.56;4934725;29;20086;-82
2021/12/19 00:40:52;;;;;;;33.57;24.50;;;;;;;0.33;82.62;102680.66;4934970;29;20051;-87
2021/12/19 00:43:55;;;;;;;33.83;25.20;;;;;;;-0.52;82.65;102538.06;4935550;29;20527;-82
2021/12/19 00:46:15;;;;;;;34.13;24.83;;;;;;;-1.21;82.59;102416.31;4933571;29;20055;-85
2021/12/19 00:48:45;;;;;;;30.50;23.87;;;;;;;-1.19;82.78;102424.97;4934583;29;20127;-86
2021/12/19 00:51:16;;;;;;;34.67;25.30;;;;;;;0.34;82.38;102658.84;4935333;29;20492;-84
2021/12/19 00:53:44;;;;;;;31.52;22.73;;;;;;;-0.87;82.68;102452.44;4934417;29;20048;-83
2021/12/19 00:56:12;;;;;;;36.00;25.33;;;;;;;-0.82;82.33;102453.22;4933777;29;20055;-85
2021/12/19 00:58:39;;;;;;;33.60;25.43;;;;;;;-0.46;81.84;102524.09;4935901;29;20056;-85
2021/12/19 01:01:10;;;;;;;34.93;26.43;;;;;;;-1.00;81.79;102409.97;4935796;29;20058;-83
2021/12/19 01:03:37;;;;;;;36.13;27.10;;;;;;;-0.90;81.88;102431.56;4972696;28;20055;-84
2021/12/19 01:06:04;;;;;;;32.53;25.37;;;;;;;0.14;82.31;102594.66;4973684;28;20102;-83
2021/12/19 01:08:31;;;;;;;37.10;24.60;;;;;;;0.31;81.50;102620.56;4957489;28;20075;-85
2021/12/19 01:10:58;;;;;;;32.90;25.33;;;;;;;-0.26;81.69;102524.72;4958739;28;20491;-84
2021/12/19 01:13:25;;;;;;;33.07;24.63;;;;;;;-0.05;81.40;102543.56;4961844;28;20055;-84
2021/12/19 01:15:56;;;;;;;30.07;23.77;;;;;;;-0.66;81.23;102449.56;4962947;28;20058;-83
2021/12/19 01:18:24;;;;;;;31.47;23.87;;;;;;;0.06;81.32;102557.34;4978072;28;20047;-84
2021/12/19 01:20:51;;;;;;;31.70;24.60;;;;;;;-1.17;80.90;102350.22;4956765;28;20411;-84
2021/12/19 01:23:17;;;;;;;33.27;25.13;;;;;;;-1.06;80.51;102373.56;4974328;28;20074;-84
2021/12/19 01:25:44;;;;;;;30.13;22.77;;;;;;;0.47;80.30;102617.75;4956721;28;20054;-83
2021/12/19 01:28:11;;;;;;;31.80;24.30;;;;;;;-0.48;80.82;102471.06;4956391;28;20487;-84
2021/12/19 01:30:38;;;;;;;32.03;25.00;;;;;;;-0.79;80.43;102419.28;4973806;28;20475;-83
2021/12/19 01:33:04;;;;;;;32.57;23.27;;;;;;;-0.27;80.42;102506.44;4956840;28;20483;-82
2021/12/19 01:35:34;;;;;;;31.20;23.30;;;;;;;0.31;80.62;102601.41;4957308;28;20134;-87
2021/12/19 01:38:01;;;;;;;30.47;23.53;;;;;;;-0.36;80.06;102486.56;4974657;28;20047;-83
2021/12/19 01:40:27;;;;;;;33.20;23.80;;;;;;;0.58;80.20;102655.91;4958385;28;20122;-84
2021/12/19 01:42:57;;;;;;;32.43;23.70;;;;;;;-0.17;79.79;102508.06;4958372;28;20491;-81
2021/12/19 01:45:28;;;;;;;32.23;25.27;;;;;;;-0.31;79.42;102491.72;4956486;28;20047;-83
2021/12/19 01:47:56;;;;;;;29.10;23.20;;;;;;;-0.48;79.43;102453.66;4956119;28;20105;-84
2021/12/19 01:50:24;;;;;;;29.73;23.40;;;;;;;-1.25;79.01;102328.59;4956509;28;20313;-84
2021/12/19 01:52:51;;;;;;;29.93;22.90;;;;;;;0.37;79.47;102603.94;4955998;28;20135;-83
2021/12/19 01:55:18;;;;;;;33.23;25.27;;;;;;;-0.38;78.91;102482.25;4973236;28;20055;-83
2021/12/19 01:57:45;;;;;;;29.63;23.83;;;;;;;-0.58;79.04;102438.13;4973074;28;20055;-85
2021/12/19 02:00:31;;;;;;;32.27;23.07;;;;;;;-0.30;79.00;102485.63;4973635;28;20483;-83
2021/12/19 02:02:59;;;;;;;28.43;22.97;;;;;;;-0.93;79.05;102367.28;4968885;28;20273;-82
2021/12/19 02:05:27;;;;;;;29.07;23.03;;;;;;;0.08;79.06;102545.13;4952113;28;20082;-84
2021/12/19 02:07:55;;;;;;;31.30;23.77;;;;;;;0.15;79.31;102564.22;4969096;28;20051;-85
2021/12/19 02:10:25;;;;;;;28.10;22.77;;;;;;;0.45;79.18;102616.91;4969257;28;20134;-85
2021/12/19 02:12:54;;;;;;;27.70;22.90;;;;;;;0.02;79.59;102545.22;4951867;28;20055;-84
2021/12/19 02:15:25;;;;;;;29.30;22.27;;;;;;;0.00;78.94;102528.72;4951912;28;20065;-83
2021/12/19 02:18:00;;;;;;;29.67;22.73;;;;;;;0.24;78.82;102577.13;4952321;28;20054;-83
2021/12/19 02:20:31;;;;;;;;;;;;;;;0.49;79.57;102623.81;4952191;28;20062;-84
2021/12/19 02:22:58;;;;;;;28.87;21.53;;;;;;;0.33;79.30;102583.97;4951728;28;20009;-83
2021/12/19 02:25:25;;;;;;;26.70;20.77;;;;;;;-0.01;79.46;102520.00;4951877;28;20050;-86
2021/12/19 02:27:52;;;;;;;27.87;22.77;;;;;;;0.12;79.60;102541.59;4951726;28;20090;-84
2021/12/19 02:30:19;;;;;;;27.37;21.10;;;;;;;0.41;79.85;102589.94;4951236;28;20058;-85
2021/12/19 02:32:48;;;;;;;28.17;23.10;;;;;;;0.38;79.26;102571.69;4951472;28;20396;-81
2021/12/19 02:35:22;;;;;;;26.80;21.17;;;;;;;-0.70;79.38;102403.53;4968671;28;20347;-86
2021/12/19 02:48:39;;;;;;;28.60;24.13;;;;;;;0.67;78.09;102573.00;4932028;28;20139;-83
2021/12/19 02:51:06;;;;;;;27.57;22.90;;;;;;;0.62;78.44;102573.94;4968519;28;20085;-84
2021/12/19 02:53:39;;;;;;;29.73;25.00;;;;;;;0.42;77.91;102516.75;4968738;28;20054;-82
2021/12/19 02:56:09;;;;;;;31.10;24.30;;;;;;;0.48;77.82;102548.91;4954107;28;20139;-84
2021/12/19 02:58:38;;;;;;;27.57;23.47;;;;;;;0.68;78.05;102585.19;4962216;28;20054;-86
2021/12/19 03:01:13;;;;;;;28.60;22.77;;;;;;;0.60;77.65;102580.94;4976290;28;20031;-90
2021/12/19 03:03:40;;;;;;;32.40;23.83;;;;;;;-1.01;78.12;102308.34;4975487;28;20414;-87
2021/12/19 03:06:07;;;;;;;28.57;23.67;;;;;;;-0.17;78.86;102455.84;4968733;28;20114;-86
2021/12/19 03:08:35;;;;;;;31.33;23.17;;;;;;;0.35;78.96;102528.19;4951626;28;20046;-85
2021/12/19 03:18:52;;;;;;;31.40;23.13;;;;;;;0.29;79.30;102511.75;4968415;28;20073;-85
2021/12/19 03:21:23;;;;;;;28.93;24.47;;;;;;;0.08;78.66;102477.25;4968584;28;20051;-82
2021/12/19 03:23:54;;;;;;;28.25;21.75;;;;;;;0.40;78.74;102509.84;4951220;28;20063;-84
2021/12/19 03:26:21;;;;;;;30.83;23.80;;;;;;;-1.11;78.50;102274.56;4968388;28;20061;-86
2021/12/19 03:28:48;;;;;;;34.40;25.37;;;;;;;-1.08;78.43;102281.47;4950966;28;20074;-86
2021/12/19 03:31:15;;;;;;;34.80;24.03;;;;;;;0.43;78.42;102535.91;4967900;28;20043;-83
2021/12/19 03:33:42;;;;;;;34.17;24.50;;;;;;;-0.70;78.48;102359.19;4967735;28;20054;-84
2021/12/19 03:36:08;;;;;;;33.27;25.13;;;;;;;-0.38;78.07;102401.34;4950993;28;20078;-83
2021/12/19 03:38:40;;;;;;;32.07;25.00;;;;;;;-1.11;78.72;102278.91;4968116;28;20422;-85
2021/12/19 03:44:03;;;;;;;31.23;23.93;;;;;;;-0.46;78.33;102391.03;4958836;28;20062;-83
2021/12/19 03:46:30;;;;;;;;;;;;;;;0.31;78.51;102510.81;4951843;28;20054;-85
2021/12/19 03:48:57;;;;;;;33.80;24.63;;;;;;;-0.70;77.89;102345.28;4951605;28;19925;-85
2021/12/19 03:51:24;;;;;;;34.57;24.93;;;;;;;-0.75;77.91;102327.09;4950724;28;20562;-85
2021/12/19 03:53:53;;;;;;;34.77;25.43;;;;;;;-0.82;77.77;102325.44;4953828;28;20047;-84
2021/12/19 03:56:20;;;;;;;37.40;25.90;;;;;;;-0.98;78.18;102284.81;4953957;28;20065;-84
2021/12/19 03:58:47;;;;;;;31.93;24.53;;;;;;;0.29;78.39;102509.13;4971390;28;20586;-85
2021/12/19 04:01:14;;;;;;;34.57;24.50;;;;;;;-1.08;78.00;102274.50;4954068;28;20059;-86
2021/12/19 04:03:41;;;;;;;29.97;23.47;;;;;;;-0.90;77.76;102296.88;4953944;28;20050;-85
2021/12/19 04:06:09;;;;;;;33.17;23.50;;;;;;;-1.36;78.14;102227.13;4954140;28;20057;-85
2021/12/19 04:08:35;;;;;;;32.93;23.77;;;;;;;-1.06;77.91;102274.50;4971184;28;20490;-84
2021/12/19 04:11:05;;;;;;;33.63;25.63;;;;;;;-1.02;78.00;102273.59;4953833;28;20059;-83
2021/12/19 04:13:32;;;;;;;34.27;24.67;;;;;;;0.19;77.41;102469.22;4953629;28;20086;-84
2021/12/19 04:15:59;;;;;;;31.73;23.87;;;;;;;-1.01;77.65;102267.47;4953782;28;20537;-83
2021/12/19 04:18:25;;;;;;;30.37;24.20;;;;;;;-0.96;77.56;102272.63;4954034;28;20050;-84
2021/12/19 04:20:52;;;;;;;30.17;22.03;;;;;;;-0.57;77.68;102356.41;4953743;28;20110;-84
2021/12/19 04:23:19;;;;;;;30.77;23.73;;;;;;;-0.55;77.70;102346.81;4954161;28;20055;-83
2021/12/19 04:25:46;;;;;;;30.97;23.67;;;;;;;-1.42;77.44;102213.31;4953322;28;20240;-84
2021/12/19 04:28:15;;;;;;;29.30;22.73;;;;;;;-0.46;78.11;102370.16;4970682;28;20399;-84
2021/12/19 04:30:41;;;;;;;36.10;24.97;;;;;;;-1.57;77.98;102189.19;4953653;28;20125;-83
2021/12/19 04:33:11;;;;;;;30.27;22.43;;;;;;;-1.00;78.11;102278.75;4953594;28;20373;-86
2021/12/19 04:35:41;;;;;;;31.17;24.90;;;;;;;-1.69;77.90;102163.31;4953556;28;20141;-86
2021/12/19 05:15:34;;;;;;;26.97;20.93;;;;;;;-1.79;78.54;102136.53;4969875;28;20046;-84
2021/12/19 05:18:05;;;;;;;25.10;19.77;;;;;;;-1.23;78.72;102238.25;4951707;28;20063;-85
2021/12/19 05:20:34;;;;;;;23.58;19.90;;;;;;;-1.83;78.77;102144.41;4952345;28;20058;-86
2021/12/19 05:23:12;;;;;;;22.87;18.07;;;;;;;-1.63;78.81;102178.84;4983675;28;20059;-83
2021/12/19 05:25:39;;;;;;;20.00;16.67;;;;;;;-0.89;78.80;102300.34;4968713;28;20089;-84
2021/12/19 05:28:05;;;;;;;23.63;17.60;;;;;;;-1.56;78.67;102195.25;4951466;28;20426;-85
2021/12/19 05:30:35;;;;;;;26.33;18.70;;;;;;;-1.64;78.46;102184.09;4951939;28;20599;-83
2021/12/19 05:33:06;;;;;;;21.30;17.30;;;;;;;-1.34;78.94;102237.50;4968405;28;20549;-85
2021/12/19 05:45:11;;;;;;;22.00;16.50;;;;;;;-0.47;79.21;102397.13;4898983;28;20118;-83
2021/12/19 05:46:57;;;;;;;22.43;16.83;;;;;;;-0.91;79.02;102310.78;4970463;28;20067;-84
2021/12/19 05:49:25;;;;;;;21.13;17.03;;;;;;;-0.24;79.04;102426.38;4953935;28;20100;-85
2021/12/19 05:51:52;;;;;;;20.10;15.83;;;;;;;-0.52;79.43;102365.00;4952893;28;20109;-84
2021/12/19 05:54:18;;;;;;;18.20;15.77;;;;;;;-0.44;79.49;102365.75;4952614;28;20046;-84
2021/12/19 05:56:46;;;;;;;22.23;16.33;;;;;;;-1.88;79.18;102110.59;4952658;28;20050;-85
2021/12/19 05:59:14;;;;;;;19.47;14.73;;;;;;;-0.52;79.48;102337.16;4963345;28;20059;-86
2021/12/19 06:01:43;;;;;;;19.10;14.73;;;;;;;-0.47;79.92;102337.97;4976271;28;20063;-89
2021/12/19 06:04:10;;;;;;;20.80;15.37;;;;;;;-0.10;79.51;102386.13;4964737;28;20122;-84
2021/12/19 06:06:36;;;;;;;20.73;14.93;;;;;;;-0.51;79.58;102306.72;4932391;29;20061;-84
2021/12/19 06:09:04;;;;;;;18.43;14.63;;;;;;;-0.19;79.33;102347.09;4932352;29;20106;-85
2021/12/19 06:11:31;;;;;;;18.07;14.60;;;;;;;-1.94;79.37;102049.09;4931918;29;20047;-84
2021/12/19 06:13:58;;;;;;;18.67;15.67;;;;;;;-0.50;79.41;102287.59;4931678;29;20051;-83
2021/12/19 06:16:25;;;;;;;17.37;14.50;;;;;;;-0.15;78.90;102336.59;4930890;29;20083;-83
2021/12/19 06:18:52;;;;;;;17.17;14.57;;;;;;;0.01;79.34;102349.41;4948594;29;20138;-83
2021/12/19 06:21:18;;;;;;;18.83;15.13;;;;;;;-0.17;79.24;102309.66;4931387;29;20146;-84
2021/12/19 06:23:45;;;;;;;17.23;15.10;;;;;;;-0.02;79.41;102337.25;4931598;29;20550;-84
2021/12/19 06:26:12;;;;;;;19.13;15.67;;;;;;;-1.27;79.11;102119.28;4940381;28;20113;-84
2021/12/19 06:28:40;;;;;;;18.90;15.33;;;;;;;-0.96;79.62;102160.53;4951125;28;20426;-84
2021/12/19 06:31:07;;;;;;;17.33;15.50;;;;;;;-0.42;79.51;102259.63;4950463;28;20067;-86
2021/12/19 06:33:34;;;;;;;20.37;16.10;;;;;;;-1.65;79.25;102037.41;4967809;28;20403;-85
2021/12/19 06:36:02;;;;;;;21.67;14.87;;;;;;;-0.32;79.04;102253.34;4950450;28;20054;-84
2021/12/19 06:38:29;;;;;;;18.10;14.83;;;;;;;-0.73;78.89;102184.50;4967496;28;20276;-84
2021/12/19 06:40:56;;;;;;;19.17;15.37;;;;;;;-0.83;79.25;102150.75;4967726;28;20062;-87
2021/12/19 06:43:23;;;;;;;19.07;14.80;;;;;;;-0.30;78.88;102229.84;4950716;28;20144;-83
2021/12/19 06:45:49;;;;;;;17.87;15.43;;;;;;;0.03;79.55;102275.38;4950503;28;20133;-86
2021/12/19 06:48:18;;;;;;;19.67;15.57;;;;;;;-1.42;79.03;102029.22;4967456;28;20141;-83
2021/12/19 06:50:47;;;;;;;15.73;14.03;;;;;;;0.20;79.59;102306.41;4951264;28;20054;-84
2021/12/19 06:53:14;;;;;;;18.30;15.17;;;;;;;-0.91;79.06;102122.19;4965817;28;20106;-86
2021/12/19 06:55:41;;;;;;;18.13;15.63;;;;;;;-0.99;79.97;102109.28;4967485;28;20615;-85
2021/12/19 06:58:08;;;;;;;18.50;15.53;;;;;;;-0.86;79.67;102120.38;4966276;28;20113;-83
2021/12/19 07:00:37;;;;;;;16.77;15.00;;;;;;;-0.63;80.11;102153.00;4966309;28;20066;-85
2021/12/19 07:03:09;;;;;;;20.40;16.40;;;;;;;-0.41;80.24;102175.25;4965719;28;20144;-85
2021/12/19 07:05:37;;;;;;;20.35;17.25;;;;;;;-0.06;79.42;102203.28;4952860;28;20486;-86
2021/12/19 07:08:04;;;;;;;22.33;15.60;;;;;;;-1.16;79.18;102020.97;4951059;28;20046;-87
2021/12/19 07:10:36;;;;;;;17.93;15.43;;;;;;;0.09;78.89;102228.25;4951265;28;20079;-83
2021/12/19 07:13:03;;;;;;;20.87;16.17;;;;;;;0.61;79.26;102303.00;4954180;28;20102;-85
2021/12/19 07:15:30;;;;;;;21.63;16.60;;;;;;;-0.16;79.19;102191.31;4968159;28;20051;-86
2021/12/19 07:18:04;;;;;;;19.58;17.08;;;;;;;0.01;78.83;102216.25;4966986;28;20436;-84
2021/12/19 07:20:31;;;;;;;19.50;16.50;;;;;;;0.61;78.63;102313.44;4949860;28;20047;-85
2021/12/19 07:22:58;;;;;;;18.73;15.30;;;;;;;0.50;78.30;102285.81;4949721;28;20050;-84
2021/12/19 07:25:25;;;;;;;20.03;15.17;;;;;;;0.34;77.72;102275.66;4967462;28;20172;-84
2021/12/19 07:27:51;;;;;;;19.33;16.53;;;;;;;0.43;77.77;102287.66;4954254;28;20066;-86
2021/12/19 07:30:25;;;;;;;22.10;17.00;;;;;;;0.54;77.96;102297.94;4972175;28;20050;-86
2021/12/19 07:32:55;;;;;;;21.20;16.17;;;;;;;-0.63;77.81;102112.16;4954157;28;20695;-84
2021/12/19 07:35:23;;;;;;;22.37;15.50;;;;;;;0.57;77.34;102303.09;4954893;28;20133;-84
2021/12/19 07:37:55;;;;;;;16.37;13.87;;;;;;;0.72;77.63;102322.81;4954822;28;20082;-86
2021/12/19 07:40:23;;;;;;;17.15;13.70;;;;;;;0.68;77.50;102310.69;4954391;28;20093;-85
2021/12/19 07:42:52;;;;;;;18.73;14.57;;;;;;;0.54;77.48;102298.78;4954775;28;20108;-85
2021/12/19 07:45:19;;;;;;;18.70;15.03;;;;;;;0.76;78.12;102329.72;4955092;28;20050;-83
2021/12/19 07:47:45;;;;;;;17.13;13.60;;;;;;;0.73;78.03;102327.16;4972134;28;20072;-83
2021/12/19 07:50:13;;;;;;;18.77;14.87;;;;;;;0.06;77.57;102219.63;4955041;28;20495;-84
2021/12/19 07:52:40;;;;;;;21.07;16.73;;;;;;;0.29;77.33;102268.78;4955201;28;20494;-84
2021/12/19 07:55:07;;;;;;;20.67;15.43;;;;;;;-0.05;77.97;102230.25;4973185;28;20082;-88
2021/12/19 07:57:35;;;;;;;22.43;18.03;;;;;;;-1.08;78.03;102068.59;4955500;28;20089;-86
2021/12/19 08:00:04;;;;;;;22.53;17.43;;;;;;;-1.36;78.52;102021.31;4955051;28;20766;-84
2021/12/19 08:02:30;;;;;;;25.87;18.30;;;;;;;-1.18;78.36;102035.75;4974184;28;20449;-84
2021/12/19 08:05:00;;;;;;;20.47;16.13;;;;;;;0.49;78.98;102318.91;4972811;28;20054;-85
2021/12/19 08:07:29;;;;;;;23.60;17.40;;;;;;;-0.68;79.13;102114.84;4952755;28;20055;-86
2021/12/19 08:12:35;;;;;;;21.77;17.30;;;;;;;0.44;79.19;102292.03;4970746;28;20042;-86
2021/12/19 08:15:02;;;;;;;19.23;14.97;;;;;;;-0.59;78.88;102105.13;4954119;28;20512;-84
2021/12/19 08:17:31;;;;;;;23.07;16.57;;;;;;;-0.31;79.13;102149.84;4971663;28;20054;-83
2021/12/19 08:19:59;;;;;;;21.80;17.30;;;;;;;-0.24;78.91;102141.84;4954132;28;20125;-84
2021/12/19 08:22:29;;;;;;;21.13;16.87;;;;;;;0.51;79.23;102254.41;4953463;28;20404;-86
2021/12/19 08:24:57;;;;;;;19.77;15.63;;;;;;;0.12;79.16;102181.19;4971039;28;20418;-85
2021/12/19 08:27:25;;;;;;;17.83;15.77;;;;;;;-0.45;79.04;102066.59;4954170;28;20449;-86
2021/12/19 08:29:55;;;;;;;19.27;14.90;;;;;;;1.13;79.09;102313.25;4971331;28;20046;-85
2021/12/19 08:32:23;;;;;;;19.43;15.40;;;;;;;0.78;78.56;102228.59;4954037;28;20457;-85
2021/12/19 08:34:49;;;;;;;22.17;15.97;;;;;;;-0.13;78.65;102070.28;4953974;28;20109;-86
2021/12/19 08:37:17;;;;;;;20.50;15.90;;;;;;;-0.94;78.89;101918.91;4954689;28;20066;-85
2021/12/19 08:39:47;;;;;;;17.87;14.27;;;;;;;0.63;78.11;102169.63;4953140;28;20117;-86
2021/12/19 08:42:15;;;;;;;17.80;14.67;;;;;;;-0.08;77.92;102030.13;4953865;28;20105;-83
2021/12/19 08:44:45;;;;;;;15.60;13.93;;;;;;;1.63;78.41;102313.84;4971004;28;20059;-83
2021/12/19 08:47:12;;;;;;;16.80;14.07;;;;;;;1.08;78.02;102189.56;4954323;28;20055;-86
2021/12/19 08:49:40;;;;;;;17.73;14.10;;;;;;;1.78;77.80;102300.34;4953892;28;20105;-84
2021/12/19 08:52:08;;;;;;;18.70;13.87;;;;;;;0.75;77.70;102096.19;4953902;28;20081;-84
2021/12/19 08:54:36;;;;;;;15.93;13.37;;;;;;;2.00;77.63;102305.06;4953508;28;20053;-85
2021/12/19 08:57:03;;;;;;;15.53;13.40;;;;;;;2.10;77.38;102293.44;4970851;28;20515;-85
2021/12/19 08:59:31;;;;;;;18.17;12.77;;;;;;;1.56;77.47;102173.53;4975629;28;20051;-85
2021/12/19 09:02:00;;;;;;;15.80;13.80;;;;;;;0.51;77.34;101977.44;4961697;28;20150;-84
2021/12/19 09:04:30;;;;;;;17.00;13.67;;;;;;;1.26;77.44;102079.19;4978117;28;20058;-85
2021/12/19 09:06:58;;;;;;;14.97;13.33;;;;;;;0.76;76.88;101972.41;4970144;28;20105;-85
2021/12/19 09:09:25;;;;;;;20.13;13.50;;;;;;;1.00;76.11;101976.13;4953255;28;20435;-85
2021/12/19 09:11:52;;;;;;;19.37;15.20;;;;;;;1.57;75.60;102060.06;4970839;28;20054;-84
2021/12/19 09:14:19;;;;;;;19.30;16.27;;;;;;;2.94;75.73;102241.22;4953468;28;20082;-82
2021/12/19 09:16:47;;;;;;;23.70;19.13;;;;;;;2.48;75.66;102140.34;4971914;28;20696;-82
2021/12/19 09:19:15;;;;;;;22.10;19.50;;;;;;;1.55;75.09;101960.63;4953695;28;20058;-86
2021/12/19 09:21:42;;;;;;;26.67;21.50;;;;;;;2.49;74.77;102073.03;4954400;28;20046;-84
2021/12/19 09:24:09;;;;;;;24.97;20.80;;;;;;;2.94;74.35;102133.66;4971250;28;20062;-83
2021/12/19 09:26:36;;;;;;;26.00;21.53;;;;;;;3.11;73.59;102124.38;4950435;29;20055;-84
2021/12/19 09:29:03;;;;;;;24.57;21.53;;;;;;;3.94;73.91;102234.44;4950588;29;20062;-85
2021/12/19 09:31:30;;;;;;;27.33;23.37;;;;;;;4.03;73.09;102232.34;4951872;28;20059;-84
2021/12/19 09:33:56;;;;;;;28.17;21.67;;;;;;;3.61;72.70;102133.09;4951691;29;20151;-85
2021/12/19 09:36:24;;;;;;;26.47;22.03;;;;;;;2.54;72.64;101921.69;4951488;29;20097;-84
2021/12/19 09:38:51;;;;;;;28.33;24.33;;;;;;;2.71;72.07;101942.09;4950371;29;20074;-84
2021/12/19 09:41:31;;;;;;;28.13;25.03;;;;;;;3.30;71.72;102006.47;4950645;29;20106;-85
2021/12/19 09:44:04;;;;;;;27.23;24.43;;;;;;;4.16;71.66;102124.13;4950885;29;20126;-88
2021/12/19 09:46:38;;;;;;;30.13;25.40;;;;;;;4.91;71.49;102229.94;4952356;28;20063;-85
2021/12/19 09:49:07;;;;;;;25.90;23.13;;;;;;;4.03;71.55;102061.53;4950574;29;20087;-84
2021/12/19 09:51:34;;;;;;;30.10;25.97;;;;;;;3.68;71.63;101991.94;4950262;28;20062;-86
2021/12/19 09:54:02;;;;;;;27.27;23.75;;;;;;;3.95;71.03;102013.66;4958571;28;20565;-85
2021/12/19 09:56:33;;;;;;;30.40;26.30;;;;;;;3.85;71.26;101979.00;4979429;28;20046;-85
2021/12/19 09:59:15;;;;;;;27.80;24.63;;;;;;;5.19;70.91;102186.69;4965319;28;20264;-85
2021/12/19 10:01:45;;;;;;;29.07;24.87;;;;;;;3.92;70.95;101957.75;4951666;29;20101;-86
2021/12/19 10:04:34;;;;;;;29.65;24.33;;;;;;;4.75;70.91;102099.91;4950693;28;20295;-84
2021/12/19 10:07:07;;;;;;;28.00;23.50;;;;;;;3.80;70.47;101930.19;4934095;29;20051;-83
2021/12/19 10:09:37;;;;;;;27.40;23.40;;;;;;;4.71;70.47;102064.13;4958983;28;20054;-89
2021/12/19 10:12:37;;;;;;;28.52;23.48;;;;;;;5.57;70.90;102176.34;4950359;28;20322;-84
2021/12/19 10:15:13;;;;;;;28.13;24.33;;;;;;;5.60;70.64;102170.94;4951515;28;20134;-83
2021/12/19 10:17:40;;;;;;;30.67;25.30;;;;;;;5.67;70.58;102161.84;4951700;28;20047;-87
2021/12/19 10:20:14;;;;;;;27.83;24.73;;;;;;;5.02;70.42;102049.66;4968784;28;20136;-85
2021/12/19 10:22:47;;;;;;;29.98;25.63;;;;;;;5.63;70.26;102144.50;4968716;28;20495;-84
2021/12/19 10:25:21;;;;;;;27.83;24.48;;;;;;;5.83;69.89;102163.84;4951837;28;20047;-85
2021/12/19 10:27:57;;;;;;;31.08;25.85;;;;;;;5.91;69.37;102153.81;4968789;28;20271;-83
2021/12/19 10:30:26;;;;;;;28.67;25.48;;;;;;;5.14;69.47;102007.88;4951652;28;20051;-86
2021/12/19 10:33:05;;;;;;;28.60;24.20;;;;;;;5.24;69.15;102015.38;4951316;28;20047;-82
2021/12/19 10:35:47;;;;;;;26.85;23.98;;;;;;;5.03;69.13;101956.63;4950789;28;20659;-85
2021/12/19 10:38:25;;;;;;;27.33;23.02;;;;;;;5.62;68.86;102037.38;4950994;28;20046;-85
2021/12/19 10:40:58;;;;;;;27.40;23.80;;;;;;;6.28;69.35;102136.34;4951490;28;20493;-84
2021/12/19 10:43:29;;;;;;;25.27;22.38;;;;;;;5.83;68.99;102039.97;4951156;28;20467;-84
2021/12/19 10:46:02;;;;;;;27.25;24.30;;;;;;;5.00;68.68;101880.44;4951971;28;20071;-85
2021/12/19 10:48:34;;;;;;;28.70;24.63;;;;;;;6.05;68.80;102024.03;4951061;28;20512;-84
2021/12/19 10:51:07;;;;;;;28.27;25.15;;;;;;;5.38;68.61;101896.25;4950921;28;20050;-83
2021/12/19 10:53:54;;;;;;;27.30;24.30;;;;;;;5.97;68.57;101974.28;4950813;28;20054;-86
2021/12/19 10:56:30;;;;;;;30.58;24.27;;;;;;;5.26;68.51;101839.75;4951248;28;20058;-86
2021/12/19 10:59:05;;;;;;;31.63;24.70;;;;;;;5.56;68.10;101845.34;4968622;28;20055;-83
2021/12/19 11:01:36;;;;;;;31.33;26.40;;;;;;;7.24;68.18;102085.91;4949230;28;20078;-85
2021/12/19 11:04:04;;;;;;;33.37;27.13;;;;;;;7.28;68.36;102082.16;4948833;28;20049;-84
2021/12/19 11:06:48;;;;;;;30.75;26.60;;;;;;;7.26;68.28;102074.31;4949956;28;20341;-84
2021/12/19 11:09:16;;;;;;;30.35;25.25;;;;;;;5.62;68.34;101805.53;4950930;28;20054;-83
2021/12/19 11:12:10;;;;;;;31.38;24.45;;;;;;;5.75;68.55;101806.66;4968471;28;20050;-84
2021/12/19 11:14:43;;;;;;;25.42;22.77;;;;;;;7.29;67.98;102065.38;4950941;28;20054;-83
2021/12/19 11:17:20;;;;;;;23.77;19.42;;;;;;;5.88;66.04;101809.53;4951207;28;20065;-85
2021/12/19 11:19:50;;;;;;;25.90;21.73;;;;;;;6.96;66.33;101991.38;4952145;28;20133;-84
2021/12/19 11:22:23;;;;;;;24.08;19.65;;;;;;;6.04;66.84;101832.50;4953390;28;20124;-85
2021/12/19 11:25:04;;;;;;;25.70;20.15;;;;;;;6.86;67.26;101943.50;4968414;28;20051;-87
2021/12/19 11:27:34;;;;;;;24.02;19.17;;;;;;;6.51;66.36;101874.09;4932050;29;20055;-84
2021/12/19 11:30:07;;;;;;;23.10;19.42;;;;;;;7.10;66.28;101961.63;4949169;29;20051;-87
2021/12/19 11:32:58;;;;;;;26.88;21.42;;;;;;;6.55;67.16;101865.06;4932908;29;20236;-84
2021/12/19 11:35:31;;;;;;;23.75;21.15;;;;;;;6.95;67.13;101929.81;4932139;29;20086;-84
2021/12/19 11:38:01;;;;;;;23.77;20.88;;;;;;;6.57;67.87;101879.03;4931810;29;20448;-86
2021/12/19 11:40:32;;;;;;;24.00;20.88;;;;;;;7.52;67.45;102021.88;4949450;29;20062;-86
2021/12/19 11:43:12;;;;;;;27.55;21.40;;;;;;;6.83;68.70;101910.19;4932122;29;20054;-85
2021/12/19 11:45:48;;;;;;;26.02;23.23;;;;;;;7.39;68.83;102011.13;4932529;29;20087;-87
2021/12/19 11:50:54;;;;;;;26.70;21.95;;;;;;;7.35;69.42;101999.00;4949966;29;20427;-85
2021/12/19 11:53:25;;;;;;;25.85;21.60;;;;;;;5.80;68.49;101745.78;4949618;29;20110;-87
2021/12/19 11:55:55;;;;;;;24.00;21.38;;;;;;;6.59;68.97;101867.44;4932477;29;20507;-85
2021/12/19 11:58:30;;;;;;;26.58;23.38;;;;;;;5.94;68.79;101753.03;4932524;29;20130;-85
2021/12/19 12:01:03;;;;;;;26.63;23.67;;;;;;;6.12;69.12;101767.91;4949411;29;20487;-85
2021/12/19 12:03:39;;;;;;;22.63;19.65;;;;;;;6.91;67.42;101883.38;4932761;29;20684;-84
2021/12/19 12:06:08;;;;;;;26.98;21.27;;;;;;;7.49;66.98;101967.41;4932893;29;20051;-85
2021/12/19 12:08:35;;;;;;;23.65;20.90;;;;;;;7.56;67.04;101969.75;4933285;29;20078;-89
2021/12/19 12:11:02;;;;;;;27.70;22.85;;;;;;;7.24;67.18;101916.84;4935021;29;20067;-88
2021/12/19 12:13:34;;;;;;;27.10;21.98;;;;;;;7.23;66.99;101912.50;4940243;29;20051;-87
2021/12/19 12:19:09;;;;;;;28.67;23.00;;;;;;;7.56;66.62;101935.38;4956120;29;20530;-87
2021/12/19 12:24:14;;;;;;;30.98;25.48;;;;;;;6.02;66.64;101665.63;4955415;29;20126;-86
2021/12/19 12:26:50;;;;;;;26.88;23.95;;;;;;;7.00;67.11;101838.00;4947724;28;20085;-85
2021/12/19 12:29:17;;;;;;;27.05;24.23;;;;;;;6.41;67.30;101736.53;4970897;28;20050;-86
2021/12/19 12:31:47;;;;;;;27.90;24.88;;;;;;;6.16;67.20;101690.34;4953929;28;20435;-86
2021/12/19 12:34:17;;;;;;;28.27;23.67;;;;;;;6.29;66.84;101701.09;4953516;28;20055;-88
2021/12/19 12:36:45;;;;;;;26.80;23.95;;;;;;;6.30;66.39;101707.22;4953399;28;20130;-86
2021/12/19 12:39:37;;;;;;;24.98;22.30;;;;;;;6.03;67.23;101646.28;4953821;28;20050;-86
2021/12/19 12:42:09;;;;;;;27.80;24.80;;;;;;;7.47;67.15;101879.44;4971046;28;20470;-85
2021/12/19 12:44:39;;;;;;;26.92;24.02;;;;;;;7.23;66.81;101834.13;4953717;28;20055;-87
2021/12/19 12:47:07;;;;;;;27.85;24.83;;;;;;;6.47;66.21;101715.09;4970371;28;20640;-86
2021/12/19 12:49:34;;;;;;;29.45;24.75;;;;;;;7.76;66.79;101929.84;4970513;28;20054;-84